sensor_id;sensor_type;location;lat;lon;timestamp;P1;durP1;ratioP1;P2;durP2;ratioP2
77524;SDS011;66638;50.050;21.124;2023-07-16T00:02:15;15.00;;;9.90;;
77524;SDS011;66638;50.050;21.124;2023-07-16T00:05:02;16.70;;;10.40;;
77524;SDS011;66638;50.050;21.124;2023-07-16T00:07:50;14.60;;;10.90;;
77524;SDS011;66638;50.050;21.124;2023-07-16T00:10:37;13.00;;;9.50;;
77524;SDS011;66638;50.050;21.124;2023-07-16T00:13:25;13.90;;;9.60;;
77524;SDS011;66638;50.050;21.124;2023-07-16T00:16:12;13.20;;;9.30;;
77524;SDS011;66638;50.050;21.124;2023-07-16T00:19:00;13.50;;;9.60;;
77524;SDS011;66638;50.050;21.124;2023-07-16T00:21:48;11.70;;;8.40;;
77524;SDS011;66638;50.050;21.124;2023-07-16T00:24:35;9.70;;;7.40;;
77524;SDS011;66638;50.050;21.124;2023-07-16T00:27:22;9.90;;;7.80;;
77524;SDS011;66638;50.050;21.124;2023-07-16T00:30:10;11.30;;;7.30;;
77524;SDS011;66638;50.050;21.124;2023-07-16T00:32:57;9.20;;;7.60;;
77524;SDS011;66638;50.050;21.124;2023-07-16T00:35:48;9.30;;;7.70;;
77524;SDS011;66638;50.050;21.124;2023-07-16T00:38:36;9.80;;;7.70;;
77524;SDS011;66638;50.050;21.124;2023-07-16T00:41:23;12.00;;;8.40;;
77524;SDS011;66638;50.050;21.124;2023-07-16T00:44:11;10.60;;;8.90;;
77524;SDS011;66638;50.050;21.124;2023-07-16T00:46:58;11.20;;;8.70;;
77524;SDS011;66638;50.050;21.124;2023-07-16T00:49:45;12.00;;;9.90;;
77524;SDS011;66638;50.050;21.124;2023-07-16T00:52:33;14.60;;;8.30;;
77524;SDS011;66638;50.050;21.124;2023-07-16T00:55:20;10.00;;;7.40;;
77524;SDS011;66638;50.050;21.124;2023-07-16T00:58:07;10.20;;;7.60;;
77524;SDS011;66638;50.050;21.124;2023-07-16T01:00:54;10.10;;;7.40;;
77524;SDS011;66638;50.050;21.124;2023-07-16T01:03:41;9.80;;;6.90;;
77524;SDS011;66638;50.050;21.124;2023-07-16T01:06:33;10.30;;;7.80;;
77524;SDS011;66638;50.050;21.124;2023-07-16T01:09:25;9.90;;;8.20;;
77524;SDS011;66638;50.050;21.124;2023-07-16T01:12:12;10.40;;;7.40;;
77524;SDS011;66638;50.050;21.124;2023-07-16T01:15:00;9.40;;;7.10;;
77524;SDS011;66638;50.050;21.124;2023-07-16T01:17:47;8.70;;;7.50;;
77524;SDS011;66638;50.050;21.124;2023-07-16T01:20:34;7.40;;;6.00;;
77524;SDS011;66638;50.050;21.124;2023-07-16T01:30:02;7.50;;;5.80;;
77524;SDS011;66638;50.050;21.124;2023-07-16T01:32:51;8.70;;;6.30;;
77524;SDS011;66638;50.050;21.124;2023-07-16T01:35:39;6.50;;;5.40;;
77524;SDS011;66638;50.050;21.124;2023-07-16T01:38:27;8.20;;;5.70;;
77524;SDS011;66638;50.050;21.124;2023-07-16T01:41:14;6.60;;;5.40;;
77524;SDS011;66638;50.050;21.124;2023-07-16T01:44:01;6.70;;;5.40;;
77524;SDS011;66638;50.050;21.124;2023-07-16T01:46:53;6.80;;;5.60;;
77524;SDS011;66638;50.050;21.124;2023-07-16T01:50:02;7.30;;;6.20;;
77524;SDS011;66638;50.050;21.124;2023-07-16T01:52:50;7.30;;;5.70;;
77524;SDS011;66638;50.050;21.124;2023-07-16T01:55:37;7.40;;;6.10;;
77524;SDS011;66638;50.050;21.124;2023-07-16T01:58:25;7.20;;;5.80;;
77524;SDS011;66638;50.050;21.124;2023-07-16T02:01:12;7.90;;;5.80;;
77524;SDS011;66638;50.050;21.124;2023-07-16T02:03:59;7.00;;;5.00;;
77524;SDS011;66638;50.050;21.124;2023-07-16T02:06:47;8.00;;;5.60;;
77524;SDS011;66638;50.050;21.124;2023-07-16T02:09:38;6.10;;;5.00;;
77524;SDS011;66638;50.050;21.124;2023-07-16T02:12:27;7.70;;;5.40;;
77524;SDS011;66638;50.050;21.124;2023-07-16T02:15:14;9.70;;;6.00;;
77524;SDS011;66638;50.050;21.124;2023-07-16T02:18:03;8.50;;;5.70;;
77524;SDS011;66638;50.050;21.124;2023-07-16T02:20:51;7.40;;;6.40;;
77524;SDS011;66638;50.050;21.124;2023-07-16T02:23:38;6.80;;;5.30;;
77524;SDS011;66638;50.050;21.124;2023-07-16T02:26:25;8.00;;;5.40;;
77524;SDS011;66638;50.050;21.124;2023-07-16T02:29:12;8.70;;;6.20;;
77524;SDS011;66638;50.050;21.124;2023-07-16T02:31:59;6.10;;;5.20;;
77524;SDS011;66638;50.050;21.124;2023-07-16T02:34:47;6.60;;;5.70;;
77524;SDS011;66638;50.050;21.124;2023-07-16T02:37:34;8.60;;;5.50;;
77524;SDS011;66638;50.050;21.124;2023-07-16T02:40:22;6.90;;;5.20;;
77524;SDS011;66638;50.050;21.124;2023-07-16T02:43:09;7.20;;;5.00;;
77524;SDS011;66638;50.050;21.124;2023-07-16T02:45:56;5.80;;;5.10;;
77524;SDS011;66638;50.050;21.124;2023-07-16T02:48:44;7.40;;;5.40;;
77524;SDS011;66638;50.050;21.124;2023-07-16T02:51:31;7.20;;;5.40;;
77524;SDS011;66638;50.050;21.124;2023-07-16T02:54:18;6.40;;;5.30;;
77524;SDS011;66638;50.050;21.124;2023-07-16T02:57:05;6.10;;;5.10;;
77524;SDS011;66638;50.050;21.124;2023-07-16T02:59:53;8.10;;;5.10;;
77524;SDS011;66638;50.050;21.124;2023-07-16T03:02:40;6.90;;;5.60;;
77524;SDS011;66638;50.050;21.124;2023-07-16T03:05:29;7.20;;;5.00;;
77524;SDS011;66638;50.050;21.124;2023-07-16T03:08:18;7.20;;;5.00;;
77524;SDS011;66638;50.050;21.124;2023-07-16T03:11:06;5.90;;;5.20;;
77524;SDS011;66638;50.050;21.124;2023-07-16T03:13:54;6.00;;;5.30;;
77524;SDS011;66638;50.050;21.124;2023-07-16T03:16:42;5.90;;;4.90;;
77524;SDS011;66638;50.050;21.124;2023-07-16T03:19:30;5.90;;;4.80;;
77524;SDS011;66638;50.050;21.124;2023-07-16T03:22:17;5.50;;;4.60;;
77524;SDS011;66638;50.050;21.124;2023-07-16T03:25:04;8.80;;;5.10;;
77524;SDS011;66638;50.050;21.124;2023-07-16T03:27:52;7.00;;;5.00;;
77524;SDS011;66638;50.050;21.124;2023-07-16T03:30:39;6.50;;;4.80;;
77524;SDS011;66638;50.050;21.124;2023-07-16T03:33:27;6.20;;;5.00;;
77524;SDS011;66638;50.050;21.124;2023-07-16T03:36:14;7.20;;;4.90;;
77524;SDS011;66638;50.050;21.124;2023-07-16T03:39:02;7.10;;;5.30;;
77524;SDS011;66638;50.050;21.124;2023-07-16T03:41:50;8.70;;;4.70;;
77524;SDS011;66638;50.050;21.124;2023-07-16T03:44:37;5.70;;;4.60;;
77524;SDS011;66638;50.050;21.124;2023-07-16T03:47:25;7.50;;;5.10;;
77524;SDS011;66638;50.050;21.124;2023-07-16T03:50:12;6.60;;;4.70;;
77524;SDS011;66638;50.050;21.124;2023-07-16T03:52:59;5.90;;;4.70;;
77524;SDS011;66638;50.050;21.124;2023-07-16T03:55:47;7.50;;;4.80;;
77524;SDS011;66638;50.050;21.124;2023-07-16T03:58:35;8.40;;;5.30;;
77524;SDS011;66638;50.050;21.124;2023-07-16T04:01:22;5.00;;;4.50;;
77524;SDS011;66638;50.050;21.124;2023-07-16T04:04:09;5.40;;;4.60;;
77524;SDS011;66638;50.050;21.124;2023-07-16T04:06:56;6.60;;;4.80;;
77524;SDS011;66638;50.050;21.124;2023-07-16T04:09:44;7.80;;;5.00;;
77524;SDS011;66638;50.050;21.124;2023-07-16T04:12:31;5.70;;;4.80;;
77524;SDS011;66638;50.050;21.124;2023-07-16T04:15:17;7.00;;;4.30;;
77524;SDS011;66638;50.050;21.124;2023-07-16T04:18:05;9.20;;;5.10;;
77524;SDS011;66638;50.050;21.124;2023-07-16T04:20:52;7.50;;;5.00;;
77524;SDS011;66638;50.050;21.124;2023-07-16T04:23:40;6.70;;;4.40;;
77524;SDS011;66638;50.050;21.124;2023-07-16T04:26:28;5.70;;;4.50;;
77524;SDS011;66638;50.050;21.124;2023-07-16T04:29:17;7.10;;;4.90;;
77524;SDS011;66638;50.050;21.124;2023-07-16T04:32:04;5.50;;;4.80;;
77524;SDS011;66638;50.050;21.124;2023-07-16T04:34:52;5.70;;;4.10;;
77524;SDS011;66638;50.050;21.124;2023-07-16T04:37:38;6.10;;;4.40;;
77524;SDS011;66638;50.050;21.124;2023-07-16T04:40:27;6.40;;;4.10;;
77524;SDS011;66638;50.050;21.124;2023-07-16T04:43:16;6.10;;;4.90;;
77524;SDS011;66638;50.050;21.124;2023-07-16T04:46:03;5.90;;;4.30;;
77524;SDS011;66638;50.050;21.124;2023-07-16T04:48:50;6.90;;;4.20;;
77524;SDS011;66638;50.050;21.124;2023-07-16T04:51:38;6.30;;;4.30;;
77524;SDS011;66638;50.050;21.124;2023-07-16T04:54:25;5.90;;;4.70;;
77524;SDS011;66638;50.050;21.124;2023-07-16T04:57:12;6.50;;;4.60;;
77524;SDS011;66638;50.050;21.124;2023-07-16T04:59:59;5.60;;;4.40;;
77524;SDS011;66638;50.050;21.124;2023-07-16T05:02:46;5.00;;;4.30;;
77524;SDS011;66638;50.050;21.124;2023-07-16T05:05:34;5.40;;;4.70;;
77524;SDS011;66638;50.050;21.124;2023-07-16T05:08:21;8.20;;;4.10;;
77524;SDS011;66638;50.050;21.124;2023-07-16T05:11:08;6.20;;;4.60;;
77524;SDS011;66638;50.050;21.124;2023-07-16T05:13:55;5.20;;;4.00;;
77524;SDS011;66638;50.050;21.124;2023-07-16T05:16:43;6.20;;;4.70;;
77524;SDS011;66638;50.050;21.124;2023-07-16T05:19:31;6.50;;;4.30;;
77524;SDS011;66638;50.050;21.124;2023-07-16T05:22:18;6.40;;;3.90;;
77524;SDS011;66638;50.050;21.124;2023-07-16T05:25:05;7.60;;;4.00;;
77524;SDS011;66638;50.050;21.124;2023-07-16T05:27:53;6.50;;;4.40;;
77524;SDS011;66638;50.050;21.124;2023-07-16T05:30:40;7.30;;;4.70;;
77524;SDS011;66638;50.050;21.124;2023-07-16T05:33:28;6.60;;;4.70;;
77524;SDS011;66638;50.050;21.124;2023-07-16T05:36:15;4.40;;;3.80;;
77524;SDS011;66638;50.050;21.124;2023-07-16T05:39:02;7.90;;;4.70;;
77524;SDS011;66638;50.050;21.124;2023-07-16T05:41:50;5.40;;;3.90;;
77524;SDS011;66638;50.050;21.124;2023-07-16T05:44:37;6.30;;;4.30;;
77524;SDS011;66638;50.050;21.124;2023-07-16T05:47:24;8.40;;;4.80;;
77524;SDS011;66638;50.050;21.124;2023-07-16T05:50:11;6.40;;;4.90;;
77524;SDS011;66638;50.050;21.124;2023-07-16T05:52:58;5.50;;;4.20;;
77524;SDS011;66638;50.050;21.124;2023-07-16T05:55:45;5.90;;;4.30;;
77524;SDS011;66638;50.050;21.124;2023-07-16T05:58:32;9.10;;;4.40;;
77524;SDS011;66638;50.050;21.124;2023-07-16T06:01:19;5.00;;;3.70;;
77524;SDS011;66638;50.050;21.124;2023-07-16T06:04:06;5.80;;;4.30;;
77524;SDS011;66638;50.050;21.124;2023-07-16T06:06:54;4.80;;;3.80;;
77524;SDS011;66638;50.050;21.124;2023-07-16T06:09:41;6.80;;;4.10;;
77524;SDS011;66638;50.050;21.124;2023-07-16T06:12:28;7.80;;;4.20;;
77524;SDS011;66638;50.050;21.124;2023-07-16T06:15:16;7.30;;;4.60;;
77524;SDS011;66638;50.050;21.124;2023-07-16T06:18:03;5.90;;;3.80;;
77524;SDS011;66638;50.050;21.124;2023-07-16T06:20:50;4.60;;;3.80;;
77524;SDS011;66638;50.050;21.124;2023-07-16T06:23:40;5.30;;;3.90;;
77524;SDS011;66638;50.050;21.124;2023-07-16T06:26:27;7.30;;;4.30;;
77524;SDS011;66638;50.050;21.124;2023-07-16T06:29:15;7.70;;;4.20;;
77524;SDS011;66638;50.050;21.124;2023-07-16T06:32:02;7.20;;;3.60;;
77524;SDS011;66638;50.050;21.124;2023-07-16T06:34:49;7.10;;;4.20;;
77524;SDS011;66638;50.050;21.124;2023-07-16T06:37:36;6.10;;;4.10;;
77524;SDS011;66638;50.050;21.124;2023-07-16T06:40:23;4.80;;;4.00;;
77524;SDS011;66638;50.050;21.124;2023-07-16T06:43:11;5.60;;;4.30;;
77524;SDS011;66638;50.050;21.124;2023-07-16T06:45:58;4.70;;;4.20;;
77524;SDS011;66638;50.050;21.124;2023-07-16T06:48:46;6.30;;;3.60;;
77524;SDS011;66638;50.050;21.124;2023-07-16T06:51:33;5.90;;;4.20;;
77524;SDS011;66638;50.050;21.124;2023-07-16T06:54:20;5.70;;;4.00;;
77524;SDS011;66638;50.050;21.124;2023-07-16T06:57:08;7.20;;;4.10;;
77524;SDS011;66638;50.050;21.124;2023-07-16T06:59:54;5.40;;;3.90;;
77524;SDS011;66638;50.050;21.124;2023-07-16T07:02:42;4.50;;;3.60;;
77524;SDS011;66638;50.050;21.124;2023-07-16T07:05:29;5.00;;;3.90;;
77524;SDS011;66638;50.050;21.124;2023-07-16T07:08:17;5.60;;;3.80;;
77524;SDS011;66638;50.050;21.124;2023-07-16T07:11:14;4.90;;;3.60;;
77524;SDS011;66638;50.050;21.124;2023-07-16T07:14:02;6.20;;;4.10;;
77524;SDS011;66638;50.050;21.124;2023-07-16T07:16:49;8.10;;;3.70;;
77524;SDS011;66638;50.050;21.124;2023-07-16T07:19:36;8.40;;;4.40;;
77524;SDS011;66638;50.050;21.124;2023-07-16T07:22:23;5.50;;;3.70;;
77524;SDS011;66638;50.050;21.124;2023-07-16T07:25:10;5.20;;;3.60;;
77524;SDS011;66638;50.050;21.124;2023-07-16T07:27:58;6.80;;;4.60;;
77524;SDS011;66638;50.050;21.124;2023-07-16T07:30:45;7.30;;;3.60;;
77524;SDS011;66638;50.050;21.124;2023-07-16T07:33:33;4.50;;;3.50;;
77524;SDS011;66638;50.050;21.124;2023-07-16T07:36:20;4.80;;;3.80;;
77524;SDS011;66638;50.050;21.124;2023-07-16T07:39:07;4.20;;;3.80;;
77524;SDS011;66638;50.050;21.124;2023-07-16T07:41:55;6.10;;;4.40;;
77524;SDS011;66638;50.050;21.124;2023-07-16T07:44:45;6.50;;;3.80;;
77524;SDS011;66638;50.050;21.124;2023-07-16T07:47:32;4.70;;;3.60;;
77524;SDS011;66638;50.050;21.124;2023-07-16T07:50:20;5.10;;;3.60;;
77524;SDS011;66638;50.050;21.124;2023-07-16T07:53:08;4.20;;;3.80;;
77524;SDS011;66638;50.050;21.124;2023-07-16T07:55:55;5.60;;;4.00;;
77524;SDS011;66638;50.050;21.124;2023-07-16T07:58:42;5.30;;;4.10;;
77524;SDS011;66638;50.050;21.124;2023-07-16T08:01:30;4.30;;;3.90;;
77524;SDS011;66638;50.050;21.124;2023-07-16T08:04:17;5.10;;;4.30;;
77524;SDS011;66638;50.050;21.124;2023-07-16T08:07:04;5.90;;;3.90;;
77524;SDS011;66638;50.050;21.124;2023-07-16T08:09:53;4.60;;;3.80;;
77524;SDS011;66638;50.050;21.124;2023-07-16T08:12:41;5.30;;;4.00;;
77524;SDS011;66638;50.050;21.124;2023-07-16T08:15:28;6.00;;;3.80;;
77524;SDS011;66638;50.050;21.124;2023-07-16T08:18:15;5.90;;;3.60;;
77524;SDS011;66638;50.050;21.124;2023-07-16T08:21:02;4.60;;;3.90;;
77524;SDS011;66638;50.050;21.124;2023-07-16T08:23:50;5.60;;;3.60;;
77524;SDS011;66638;50.050;21.124;2023-07-16T08:26:37;6.40;;;4.20;;
77524;SDS011;66638;50.050;21.124;2023-07-16T08:29:24;7.50;;;4.70;;
77524;SDS011;66638;50.050;21.124;2023-07-16T08:32:11;5.80;;;4.20;;
77524;SDS011;66638;50.050;21.124;2023-07-16T08:34:59;5.70;;;3.70;;
77524;SDS011;66638;50.050;21.124;2023-07-16T08:37:46;5.10;;;4.10;;
77524;SDS011;66638;50.050;21.124;2023-07-16T08:40:34;5.50;;;4.20;;
77524;SDS011;66638;50.050;21.124;2023-07-16T08:43:25;5.60;;;3.80;;
77524;SDS011;66638;50.050;21.124;2023-07-16T08:46:14;5.20;;;4.40;;
77524;SDS011;66638;50.050;21.124;2023-07-16T08:49:02;5.90;;;4.60;;
77524;SDS011;66638;50.050;21.124;2023-07-16T08:51:50;10.20;;;5.10;;
77524;SDS011;66638;50.050;21.124;2023-07-16T08:54:37;5.40;;;4.80;;
77524;SDS011;66638;50.050;21.124;2023-07-16T08:57:24;6.40;;;5.70;;
77524;SDS011;66638;50.050;21.124;2023-07-16T09:00:13;7.70;;;5.40;;
77524;SDS011;66638;50.050;21.124;2023-07-16T09:03:01;7.40;;;4.50;;
77524;SDS011;66638;50.050;21.124;2023-07-16T09:05:49;5.50;;;4.30;;
77524;SDS011;66638;50.050;21.124;2023-07-16T09:08:36;5.60;;;4.50;;
77524;SDS011;66638;50.050;21.124;2023-07-16T09:11:23;5.40;;;4.20;;
77524;SDS011;66638;50.050;21.124;2023-07-16T09:14:14;5.80;;;4.50;;
77524;SDS011;66638;50.050;21.124;2023-07-16T09:17:03;5.90;;;4.40;;
77524;SDS011;66638;50.050;21.124;2023-07-16T09:19:51;7.60;;;4.40;;
77524;SDS011;66638;50.050;21.124;2023-07-16T09:22:38;5.40;;;4.00;;
77524;SDS011;66638;50.050;21.124;2023-07-16T09:25:29;4.90;;;4.10;;
77524;SDS011;66638;50.050;21.124;2023-07-16T09:28:18;4.20;;;3.80;;
77524;SDS011;66638;50.050;21.124;2023-07-16T09:31:07;5.20;;;4.10;;
77524;SDS011;66638;50.050;21.124;2023-07-16T09:33:56;6.20;;;4.10;;
77524;SDS011;66638;50.050;21.124;2023-07-16T09:36:49;6.50;;;4.10;;
77524;SDS011;66638;50.050;21.124;2023-07-16T09:39:37;4.70;;;4.20;;
77524;SDS011;66638;50.050;21.124;2023-07-16T09:42:25;5.20;;;4.00;;
77524;SDS011;66638;50.050;21.124;2023-07-16T09:45:18;4.70;;;4.10;;
77524;SDS011;66638;50.050;21.124;2023-07-16T09:48:05;6.30;;;4.70;;
77524;SDS011;66638;50.050;21.124;2023-07-16T09:50:53;7.30;;;4.40;;
77524;SDS011;66638;50.050;21.124;2023-07-16T09:53:41;5.70;;;4.30;;
77524;SDS011;66638;50.050;21.124;2023-07-16T09:56:34;7.80;;;4.40;;
77524;SDS011;66638;50.050;21.124;2023-07-16T09:59:27;5.30;;;4.00;;
77524;SDS011;66638;50.050;21.124;2023-07-16T10:02:16;7.20;;;4.20;;
77524;SDS011;66638;50.050;21.124;2023-07-16T10:05:12;7.40;;;4.40;;
77524;SDS011;66638;50.050;21.124;2023-07-16T10:08:14;6.00;;;4.20;;
77524;SDS011;66638;50.050;21.124;2023-07-16T10:11:14;5.30;;;3.90;;
77524;SDS011;66638;50.050;21.124;2023-07-16T10:14:02;5.40;;;4.40;;
77524;SDS011;66638;50.050;21.124;2023-07-16T10:16:49;7.30;;;3.90;;
77524;SDS011;66638;50.050;21.124;2023-07-16T10:19:49;6.10;;;4.50;;
77524;SDS011;66638;50.050;21.124;2023-07-16T10:22:39;5.50;;;4.20;;
77524;SDS011;66638;50.050;21.124;2023-07-16T10:25:28;4.70;;;3.90;;
77524;SDS011;66638;50.050;21.124;2023-07-16T10:28:18;5.70;;;4.30;;
77524;SDS011;66638;50.050;21.124;2023-07-16T10:31:05;5.50;;;4.00;;
77524;SDS011;66638;50.050;21.124;2023-07-16T10:34:04;6.40;;;4.00;;
77524;SDS011;66638;50.050;21.124;2023-07-16T10:36:52;4.90;;;4.20;;
77524;SDS011;66638;50.050;21.124;2023-07-16T10:39:46;5.90;;;4.40;;
77524;SDS011;66638;50.050;21.124;2023-07-16T10:42:34;5.10;;;4.10;;
77524;SDS011;66638;50.050;21.124;2023-07-16T10:45:21;5.00;;;4.00;;
77524;SDS011;66638;50.050;21.124;2023-07-16T10:48:09;5.80;;;3.80;;
77524;SDS011;66638;50.050;21.124;2023-07-16T10:50:56;6.20;;;4.30;;
77524;SDS011;66638;50.050;21.124;2023-07-16T10:53:43;5.10;;;4.50;;
77524;SDS011;66638;50.050;21.124;2023-07-16T10:56:34;7.50;;;4.50;;
77524;SDS011;66638;50.050;21.124;2023-07-16T10:59:24;6.60;;;4.30;;
77524;SDS011;66638;50.050;21.124;2023-07-16T11:02:12;5.30;;;3.90;;
77524;SDS011;66638;50.050;21.124;2023-07-16T11:05:00;4.90;;;4.10;;
77524;SDS011;66638;50.050;21.124;2023-07-16T11:07:49;4.80;;;4.40;;
77524;SDS011;66638;50.050;21.124;2023-07-16T11:10:36;5.80;;;4.90;;
77524;SDS011;66638;50.050;21.124;2023-07-16T11:13:27;5.10;;;4.10;;
77524;SDS011;66638;50.050;21.124;2023-07-16T11:16:15;6.00;;;4.40;;
77524;SDS011;66638;50.050;21.124;2023-07-16T11:19:04;5.20;;;4.30;;
77524;SDS011;66638;50.050;21.124;2023-07-16T11:21:52;5.60;;;4.10;;
77524;SDS011;66638;50.050;21.124;2023-07-16T11:24:40;6.60;;;4.50;;
77524;SDS011;66638;50.050;21.124;2023-07-16T11:27:33;7.70;;;4.20;;
77524;SDS011;66638;50.050;21.124;2023-07-16T11:30:24;8.90;;;4.10;;
77524;SDS011;66638;50.050;21.124;2023-07-16T11:33:12;5.60;;;4.40;;
77524;SDS011;66638;50.050;21.124;2023-07-16T11:36:00;5.60;;;4.50;;
77524;SDS011;66638;50.050;21.124;2023-07-16T11:38:48;7.40;;;5.10;;
77524;SDS011;66638;50.050;21.124;2023-07-16T11:41:37;5.10;;;4.30;;
77524;SDS011;66638;50.050;21.124;2023-07-16T11:44:25;4.70;;;4.20;;
77524;SDS011;66638;50.050;21.124;2023-07-16T11:47:12;6.80;;;4.00;;
77524;SDS011;66638;50.050;21.124;2023-07-16T11:50:00;5.10;;;4.40;;
77524;SDS011;66638;50.050;21.124;2023-07-16T11:52:54;5.70;;;4.20;;
77524;SDS011;66638;50.050;21.124;2023-07-16T11:55:42;7.30;;;4.70;;
77524;SDS011;66638;50.050;21.124;2023-07-16T11:58:29;9.10;;;4.30;;
77524;SDS011;66638;50.050;21.124;2023-07-16T12:01:17;5.40;;;4.50;;
77524;SDS011;66638;50.050;21.124;2023-07-16T12:04:04;5.90;;;4.10;;
77524;SDS011;66638;50.050;21.124;2023-07-16T12:06:51;6.20;;;4.20;;
77524;SDS011;66638;50.050;21.124;2023-07-16T12:09:38;5.90;;;4.20;;
77524;SDS011;66638;50.050;21.124;2023-07-16T12:12:30;6.60;;;4.70;;
77524;SDS011;66638;50.050;21.124;2023-07-16T12:15:47;5.60;;;4.10;;
77524;SDS011;66638;50.050;21.124;2023-07-16T12:18:54;5.40;;;4.20;;
77524;SDS011;66638;50.050;21.124;2023-07-16T12:22:31;5.00;;;4.20;;
77524;SDS011;66638;50.050;21.124;2023-07-16T12:26:16;7.00;;;4.30;;
77524;SDS011;66638;50.050;21.124;2023-07-16T12:29:51;5.70;;;3.90;;
77524;SDS011;66638;50.050;21.124;2023-07-16T12:33:39;5.40;;;4.20;;
77524;SDS011;66638;50.050;21.124;2023-07-16T12:36:26;5.90;;;4.30;;
77524;SDS011;66638;50.050;21.124;2023-07-16T12:39:28;7.10;;;4.90;;
77524;SDS011;66638;50.050;21.124;2023-07-16T12:42:30;5.20;;;4.30;;
77524;SDS011;66638;50.050;21.124;2023-07-16T12:45:16;5.50;;;4.70;;
77524;SDS011;66638;50.050;21.124;2023-07-16T12:48:03;6.80;;;4.50;;
77524;SDS011;66638;50.050;21.124;2023-07-16T12:50:52;4.80;;;4.30;;
77524;SDS011;66638;50.050;21.124;2023-07-16T12:53:39;7.30;;;4.70;;
77524;SDS011;66638;50.050;21.124;2023-07-16T12:56:27;8.60;;;4.60;;
77524;SDS011;66638;50.050;21.124;2023-07-16T12:59:16;5.60;;;4.60;;
77524;SDS011;66638;50.050;21.124;2023-07-16T13:02:03;5.20;;;4.10;;
77524;SDS011;66638;50.050;21.124;2023-07-16T13:04:49;5.60;;;5.00;;
77524;SDS011;66638;50.050;21.124;2023-07-16T13:07:36;4.90;;;4.30;;
77524;SDS011;66638;50.050;21.124;2023-07-16T13:10:22;5.80;;;4.50;;
77524;SDS011;66638;50.050;21.124;2023-07-16T13:13:10;5.70;;;4.30;;
77524;SDS011;66638;50.050;21.124;2023-07-16T13:15:56;5.20;;;4.50;;
77524;SDS011;66638;50.050;21.124;2023-07-16T13:18:42;5.80;;;4.70;;
77524;SDS011;66638;50.050;21.124;2023-07-16T13:21:29;8.30;;;4.70;;
77524;SDS011;66638;50.050;21.124;2023-07-16T13:24:16;6.30;;;5.20;;
77524;SDS011;66638;50.050;21.124;2023-07-16T13:27:03;6.50;;;4.40;;
77524;SDS011;66638;50.050;21.124;2023-07-16T13:29:51;6.10;;;4.50;;
77524;SDS011;66638;50.050;21.124;2023-07-16T13:32:36;6.00;;;4.50;;
77524;SDS011;66638;50.050;21.124;2023-07-16T13:35:22;5.10;;;4.60;;
77524;SDS011;66638;50.050;21.124;2023-07-16T13:38:08;6.50;;;4.70;;
77524;SDS011;66638;50.050;21.124;2023-07-16T13:40:55;6.00;;;4.50;;
77524;SDS011;66638;50.050;21.124;2023-07-16T13:43:42;5.50;;;4.60;;
77524;SDS011;66638;50.050;21.124;2023-07-16T13:46:27;5.30;;;4.80;;
77524;SDS011;66638;50.050;21.124;2023-07-16T13:49:13;6.20;;;4.50;;
77524;SDS011;66638;50.050;21.124;2023-07-16T13:51:59;5.30;;;4.70;;
77524;SDS011;66638;50.050;21.124;2023-07-16T13:54:47;5.30;;;4.50;;
77524;SDS011;66638;50.050;21.124;2023-07-16T13:57:32;5.90;;;4.60;;
77524;SDS011;66638;50.050;21.124;2023-07-16T14:00:18;9.30;;;4.40;;
77524;SDS011;66638;50.050;21.124;2023-07-16T14:03:03;5.60;;;5.00;;
77524;SDS011;66638;50.050;21.124;2023-07-16T14:05:48;5.40;;;4.10;;
77524;SDS011;66638;50.050;21.124;2023-07-16T14:08:36;6.10;;;4.80;;
77524;SDS011;66638;50.050;21.124;2023-07-16T14:11:22;5.50;;;4.30;;
77524;SDS011;66638;50.050;21.124;2023-07-16T14:14:08;5.90;;;5.10;;
77524;SDS011;66638;50.050;21.124;2023-07-16T14:16:53;5.70;;;4.30;;
77524;SDS011;66638;50.050;21.124;2023-07-16T14:19:40;5.30;;;4.50;;
77524;SDS011;66638;50.050;21.124;2023-07-16T14:22:26;6.50;;;4.00;;
77524;SDS011;66638;50.050;21.124;2023-07-16T14:25:12;8.10;;;4.40;;
77524;SDS011;66638;50.050;21.124;2023-07-16T14:30:43;4.70;;;4.20;;
77524;SDS011;66638;50.050;21.124;2023-07-16T14:33:28;6.80;;;4.20;;
77524;SDS011;66638;50.050;21.124;2023-07-16T14:36:14;4.30;;;3.70;;
77524;SDS011;66638;50.050;21.124;2023-07-16T14:38:59;4.30;;;3.80;;
77524;SDS011;66638;50.050;21.124;2023-07-16T14:41:45;5.70;;;4.20;;
77524;SDS011;66638;50.050;21.124;2023-07-16T14:44:33;6.20;;;4.40;;
77524;SDS011;66638;50.050;21.124;2023-07-16T14:47:19;6.30;;;3.70;;
77524;SDS011;66638;50.050;21.124;2023-07-16T14:50:04;4.40;;;3.60;;
77524;SDS011;66638;50.050;21.124;2023-07-16T14:52:50;6.00;;;4.00;;
77524;SDS011;66638;50.050;21.124;2023-07-16T14:55:35;4.60;;;4.00;;
77524;SDS011;66638;50.050;21.124;2023-07-16T14:58:21;5.40;;;4.10;;
77524;SDS011;66638;50.050;21.124;2023-07-16T15:01:07;4.90;;;4.40;;
77524;SDS011;66638;50.050;21.124;2023-07-16T15:03:55;6.10;;;5.10;;
77524;SDS011;66638;50.050;21.124;2023-07-16T15:06:43;5.40;;;4.30;;
77524;SDS011;66638;50.050;21.124;2023-07-16T15:09:29;5.40;;;4.30;;
77524;SDS011;66638;50.050;21.124;2023-07-16T15:12:15;5.00;;;4.50;;
77524;SDS011;66638;50.050;21.124;2023-07-16T15:15:01;4.70;;;4.20;;
77524;SDS011;66638;50.050;21.124;2023-07-16T15:17:47;5.40;;;4.10;;
77524;SDS011;66638;50.050;21.124;2023-07-16T15:23:17;5.80;;;4.60;;
77524;SDS011;66638;50.050;21.124;2023-07-16T15:26:04;5.80;;;4.60;;
77524;SDS011;66638;50.050;21.124;2023-07-16T15:28:58;4.90;;;4.40;;
77524;SDS011;66638;50.050;21.124;2023-07-16T15:31:46;6.20;;;4.80;;
77524;SDS011;66638;50.050;21.124;2023-07-16T15:34:31;8.00;;;5.50;;
77524;SDS011;66638;50.050;21.124;2023-07-16T15:37:17;7.10;;;5.00;;
77524;SDS011;66638;50.050;21.124;2023-07-16T15:40:11;5.60;;;4.80;;
77524;SDS011;66638;50.050;21.124;2023-07-16T15:42:58;5.10;;;4.60;;
77524;SDS011;66638;50.050;21.124;2023-07-16T15:48:29;5.50;;;5.00;;
77524;SDS011;66638;50.050;21.124;2023-07-16T15:51:15;7.00;;;5.00;;
77524;SDS011;66638;50.050;21.124;2023-07-16T15:54:00;6.40;;;4.90;;
77524;SDS011;66638;50.050;21.124;2023-07-16T15:56:46;4.50;;;4.10;;
77524;SDS011;66638;50.050;21.124;2023-07-16T15:59:32;5.70;;;4.40;;
77524;SDS011;66638;50.050;21.124;2023-07-16T16:02:18;5.60;;;4.40;;
77524;SDS011;66638;50.050;21.124;2023-07-16T16:05:04;6.40;;;4.50;;
77524;SDS011;66638;50.050;21.124;2023-07-16T16:11:07;6.20;;;4.90;;
77524;SDS011;66638;50.050;21.124;2023-07-16T16:13:53;6.90;;;5.50;;
77524;SDS011;66638;50.050;21.124;2023-07-16T16:16:39;7.70;;;5.10;;
77524;SDS011;66638;50.050;21.124;2023-07-16T16:19:24;5.30;;;4.80;;
77524;SDS011;66638;50.050;21.124;2023-07-16T16:22:10;5.90;;;4.00;;
77524;SDS011;66638;50.050;21.124;2023-07-16T16:24:55;6.10;;;4.90;;
77524;SDS011;66638;50.050;21.124;2023-07-16T16:27:42;5.80;;;4.80;;
77524;SDS011;66638;50.050;21.124;2023-07-16T16:30:29;6.50;;;4.90;;
77524;SDS011;66638;50.050;21.124;2023-07-16T16:33:16;11.20;;;4.70;;
77524;SDS011;66638;50.050;21.124;2023-07-16T16:36:08;7.00;;;4.50;;
77524;SDS011;66638;50.050;21.124;2023-07-16T16:38:55;5.80;;;4.50;;
77524;SDS011;66638;50.050;21.124;2023-07-16T16:41:40;6.10;;;4.90;;
77524;SDS011;66638;50.050;21.124;2023-07-16T16:44:26;6.80;;;5.30;;
77524;SDS011;66638;50.050;21.124;2023-07-16T16:47:11;6.00;;;4.70;;
77524;SDS011;66638;50.050;21.124;2023-07-16T16:49:58;6.70;;;4.60;;
77524;SDS011;66638;50.050;21.124;2023-07-16T16:52:44;6.80;;;4.60;;
77524;SDS011;66638;50.050;21.124;2023-07-16T16:55:29;6.80;;;5.70;;
77524;SDS011;66638;50.050;21.124;2023-07-16T16:58:16;6.50;;;5.60;;